sensor_id;sensor_type;location;lat;lon;timestamp;temperature;humidity
14873;DHT22;7528;48.576;19.122;2023-04-06T00:04:10;3.70;48.90
14873;DHT22;7528;48.576;19.122;2023-04-06T00:09:12;3.70;49.10
14873;DHT22;7528;48.576;19.122;2023-04-06T00:14:17;3.70;49.20
14873;DHT22;7528;48.576;19.122;2023-04-06T00:19:19;3.60;48.80
14873;DHT22;7528;48.576;19.122;2023-04-06T00:24:22;3.50;49.00
14873;DHT22;7528;48.576;19.122;2023-04-06T00:29:26;3.40;49.40
14873;DHT22;7528;48.576;19.122;2023-04-06T00:34:28;3.40;49.50
14873;DHT22;7528;48.576;19.122;2023-04-06T00:39:31;3.40;49.50
14873;DHT22;7528;48.576;19.122;2023-04-06T00:44:35;3.40;49.60
14873;DHT22;7528;48.576;19.122;2023-04-06T00:49:38;3.30;49.90
14873;DHT22;7528;48.576;19.122;2023-04-06T00:54:41;3.30;49.90
14873;DHT22;7528;48.576;19.122;2023-04-06T00:59:46;3.20;50.00
14873;DHT22;7528;48.576;19.122;2023-04-06T01:04:49;3.20;50.00
14873;DHT22;7528;48.576;19.122;2023-04-06T01:10:08;3.10;50.10
14873;DHT22;7528;48.576;19.122;2023-04-06T01:15:13;3.00;50.30
14873;DHT22;7528;48.576;19.122;2023-04-06T01:20:20;3.00;50.60
14873;DHT22;7528;48.576;19.122;2023-04-06T01:25:25;2.90;50.90
14873;DHT22;7528;48.576;19.122;2023-04-06T01:30:38;2.90;51.00
14873;DHT22;7528;48.576;19.122;2023-04-06T01:35:55;2.90;51.30
14873;DHT22;7528;48.576;19.122;2023-04-06T01:40:59;2.90;51.20
14873;DHT22;7528;48.576;19.122;2023-04-06T01:46:07;2.80;51.10
14873;DHT22;7528;48.576;19.122;2023-04-06T01:51:13;2.60;51.30
14873;DHT22;7528;48.576;19.122;2023-04-06T01:56:31;2.60;51.40
14873;DHT22;7528;48.576;19.122;2023-04-06T02:01:43;2.50;51.60
14873;DHT22;7528;48.576;19.122;2023-04-06T02:06:46;2.50;51.60
14873;DHT22;7528;48.576;19.122;2023-04-06T02:11:55;2.50;51.60
14873;DHT22;7528;48.576;19.122;2023-04-06T02:16:58;2.50;51.90
14873;DHT22;7528;48.576;19.122;2023-04-06T02:22:01;2.50;52.10
14873;DHT22;7528;48.576;19.122;2023-04-06T02:27:05;2.40;52.10
14873;DHT22;7528;48.576;19.122;2023-04-06T02:32:08;2.40;52.70
14873;DHT22;7528;48.576;19.122;2023-04-06T02:37:10;2.30;52.50
14873;DHT22;7528;48.576;19.122;2023-04-06T02:42:14;2.30;52.60
14873;DHT22;7528;48.576;19.122;2023-04-06T02:47:19;2.20;52.80
14873;DHT22;7528;48.576;19.122;2023-04-06T02:52:24;2.20;53.10
14873;DHT22;7528;48.576;19.122;2023-04-06T02:57:28;2.10;53.30
14873;DHT22;7528;48.576;19.122;2023-04-06T03:02:31;2.10;53.40
14873;DHT22;7528;48.576;19.122;2023-04-06T03:07:42;2.10;53.50
14873;DHT22;7528;48.576;19.122;2023-04-06T03:12:53;2.10;53.60
14873;DHT22;7528;48.576;19.122;2023-04-06T03:18:09;2.00;53.60
14873;DHT22;7528;48.576;19.122;2023-04-06T03:23:18;2.00;53.60
14873;DHT22;7528;48.576;19.122;2023-04-06T03:28:26;2.00;53.60
14873;DHT22;7528;48.576;19.122;2023-04-06T03:33:33;2.00;53.80
14873;DHT22;7528;48.576;19.122;2023-04-06T03:38:36;1.90;53.90
14873;DHT22;7528;48.576;19.122;2023-04-06T03:43:45;1.90;53.90
14873;DHT22;7528;48.576;19.122;2023-04-06T03:48:48;1.90;53.90
14873;DHT22;7528;48.576;19.122;2023-04-06T03:53:53;1.90;54.10
14873;DHT22;7528;48.576;19.122;2023-04-06T03:58:57;1.90;54.00
14873;DHT22;7528;48.576;19.122;2023-04-06T04:03:59;1.90;54.10
14873;DHT22;7528;48.576;19.122;2023-04-06T04:09:02;1.90;54.10
14873;DHT22;7528;48.576;19.122;2023-04-06T04:14:06;1.80;54.00
14873;DHT22;7528;48.576;19.122;2023-04-06T04:19:09;1.80;54.00
14873;DHT22;7528;48.576;19.122;2023-04-06T04:24:12;1.80;54.20
14873;DHT22;7528;48.576;19.122;2023-04-06T04:29:16;1.80;54.80
14873;DHT22;7528;48.576;19.122;2023-04-06T04:34:22;1.80;54.50
14873;DHT22;7528;48.576;19.122;2023-04-06T04:39:26;1.80;54.50
14873;DHT22;7528;48.576;19.122;2023-04-06T04:44:38;1.80;54.60
14873;DHT22;7528;48.576;19.122;2023-04-06T04:49:41;1.80;54.60
14873;DHT22;7528;48.576;19.122;2023-04-06T04:54:45;1.80;54.80
14873;DHT22;7528;48.576;19.122;2023-04-06T04:59:57;1.80;54.90
14873;DHT22;7528;48.576;19.122;2023-04-06T05:04:59;1.90;54.90
14873;DHT22;7528;48.576;19.122;2023-04-06T05:10:04;2.00;54.80
14873;DHT22;7528;48.576;19.122;2023-04-06T05:15:15;2.10;54.80
14873;DHT22;7528;48.576;19.122;2023-04-06T05:20:18;2.20;54.80
14873;DHT22;7528;48.576;19.122;2023-04-06T05:25:25;2.30;54.20
14873;DHT22;7528;48.576;19.122;2023-04-06T05:30:32;2.40;54.40
14873;DHT22;7528;48.576;19.122;2023-04-06T05:35:36;2.50;54.20
14873;DHT22;7528;48.576;19.122;2023-04-06T05:40:44;2.60;53.80
14873;DHT22;7528;48.576;19.122;2023-04-06T05:45:53;2.60;53.60
14873;DHT22;7528;48.576;19.122;2023-04-06T05:50:56;2.70;53.30
14873;DHT22;7528;48.576;19.122;2023-04-06T05:56:06;2.70;53.10
14873;DHT22;7528;48.576;19.122;2023-04-06T06:01:11;2.90;53.30
14873;DHT22;7528;48.576;19.122;2023-04-06T06:06:18;3.00;52.70
14873;DHT22;7528;48.576;19.122;2023-04-06T06:11:40;3.20;52.70
14873;DHT22;7528;48.576;19.122;2023-04-06T06:16:46;3.40;52.70
14873;DHT22;7528;48.576;19.122;2023-04-06T06:21:50;3.70;52.70
14873;DHT22;7528;48.576;19.122;2023-04-06T06:26:53;3.90;51.90
14873;DHT22;7528;48.576;19.122;2023-04-06T06:32:01;4.00;51.10
14873;DHT22;7528;48.576;19.122;2023-04-06T06:37:06;4.30;50.60
14873;DHT22;7528;48.576;19.122;2023-04-06T06:42:11;4.60;50.20
14873;DHT22;7528;48.576;19.122;2023-04-06T06:47:37;4.80;49.00
14873;DHT22;7528;48.576;19.122;2023-04-06T06:52:40;4.90;48.70
14873;DHT22;7528;48.576;19.122;2023-04-06T06:57:43;5.10;48.40
14873;DHT22;7528;48.576;19.122;2023-04-06T07:02:48;5.40;47.50
14873;DHT22;7528;48.576;19.122;2023-04-06T07:07:52;5.70;47.70
14873;DHT22;7528;48.576;19.122;2023-04-06T07:12:54;5.90;46.50
14873;DHT22;7528;48.576;19.122;2023-04-06T07:17:58;6.30;46.50
14873;DHT22;7528;48.576;19.122;2023-04-06T07:23:01;6.60;45.80
14873;DHT22;7528;48.576;19.122;2023-04-06T07:28:04;7.00;46.40
14873;DHT22;7528;48.576;19.122;2023-04-06T07:33:08;7.40;45.50
14873;DHT22;7528;48.576;19.122;2023-04-06T07:38:12;7.70;43.80
14873;DHT22;7528;48.576;19.122;2023-04-06T07:43:15;8.00;42.30
14873;DHT22;7528;48.576;19.122;2023-04-06T07:48:19;8.30;41.30
14873;DHT22;7528;48.576;19.122;2023-04-06T07:53:22;8.60;39.70
14873;DHT22;7528;48.576;19.122;2023-04-06T07:58:25;8.80;38.60
14873;DHT22;7528;48.576;19.122;2023-04-06T08:03:28;9.00;38.80
14873;DHT22;7528;48.576;19.122;2023-04-06T08:08:31;9.30;36.50
14873;DHT22;7528;48.576;19.122;2023-04-06T08:13:34;9.60;37.90
14873;DHT22;7528;48.576;19.122;2023-04-06T08:18:38;10.00;34.90
14873;DHT22;7528;48.576;19.122;2023-04-06T08:23:41;10.10;32.00
14873;DHT22;7528;48.576;19.122;2023-04-06T08:28:43;10.20;30.60
14873;DHT22;7528;48.576;19.122;2023-04-06T08:33:47;10.00;29.90
14873;DHT22;7528;48.576;19.122;2023-04-06T08:38:50;10.00;30.50
14873;DHT22;7528;48.576;19.122;2023-04-06T08:43:56;10.20;30.00
14873;DHT22;7528;48.576;19.122;2023-04-06T08:49:02;10.30;31.10
14873;DHT22;7528;48.576;19.122;2023-04-06T08:54:07;10.60;32.40
14873;DHT22;7528;48.576;19.122;2023-04-06T08:59:10;10.60;32.50
14873;DHT22;7528;48.576;19.122;2023-04-06T09:04:14;10.60;32.50
14873;DHT22;7528;48.576;19.122;2023-04-06T09:09:17;10.70;31.90
14873;DHT22;7528;48.576;19.122;2023-04-06T09:14:33;11.00;32.10
14873;DHT22;7528;48.576;19.122;2023-04-06T09:19:47;11.20;31.30
14873;DHT22;7528;48.576;19.122;2023-04-06T09:24:51;11.20;30.80
14873;DHT22;7528;48.576;19.122;2023-04-06T09:30:03;11.40;31.00
14873;DHT22;7528;48.576;19.122;2023-04-06T09:35:08;11.60;30.30
14873;DHT22;7528;48.576;19.122;2023-04-06T09:40:12;11.80;29.50
14873;DHT22;7528;48.576;19.122;2023-04-06T09:45:15;12.10;28.70
14873;DHT22;7528;48.576;19.122;2023-04-06T09:50:19;12.30;28.70
14873;DHT22;7528;48.576;19.122;2023-04-06T09:55:27;12.80;29.30
14873;DHT22;7528;48.576;19.122;2023-04-06T10:00:34;13.20;28.00
14873;DHT22;7528;48.576;19.122;2023-04-06T10:05:43;13.40;28.20
14873;DHT22;7528;48.576;19.122;2023-04-06T10:10:47;13.40;26.90
14873;DHT22;7528;48.576;19.122;2023-04-06T10:15:50;13.20;27.40
14873;DHT22;7528;48.576;19.122;2023-04-06T10:20:57;13.20;28.30
14873;DHT22;7528;48.576;19.122;2023-04-06T10:26:03;12.90;27.80
14873;DHT22;7528;48.576;19.122;2023-04-06T10:31:06;12.90;27.80
14873;DHT22;7528;48.576;19.122;2023-04-06T10:36:14;13.30;29.10
14873;DHT22;7528;48.576;19.122;2023-04-06T10:41:17;14.00;27.20
14873;DHT22;7528;48.576;19.122;2023-04-06T10:46:25;14.50;27.20
14873;DHT22;7528;48.576;19.122;2023-04-06T10:51:29;14.60;26.30
14873;DHT22;7528;48.576;19.122;2023-04-06T10:56:33;14.20;26.90
14873;DHT22;7528;48.576;19.122;2023-04-06T11:01:44;14.10;26.90
14873;DHT22;7528;48.576;19.122;2023-04-06T11:06:51;14.20;28.00
14873;DHT22;7528;48.576;19.122;2023-04-06T11:11:55;14.00;27.40
14873;DHT22;7528;48.576;19.122;2023-04-06T11:16:57;13.60;27.80
14873;DHT22;7528;48.576;19.122;2023-04-06T11:22:07;13.60;28.30
14873;DHT22;7528;48.576;19.122;2023-04-06T11:27:09;13.60;28.50
14873;DHT22;7528;48.576;19.122;2023-04-06T11:32:20;13.50;28.80
14873;DHT22;7528;48.576;19.122;2023-04-06T11:37:26;13.30;29.20
14873;DHT22;7528;48.576;19.122;2023-04-06T11:42:29;13.20;28.90
14873;DHT22;7528;48.576;19.122;2023-04-06T11:47:33;12.70;29.60
14873;DHT22;7528;48.576;19.122;2023-04-06T11:52:38;12.90;29.50
14873;DHT22;7528;48.576;19.122;2023-04-06T11:57:41;12.60;31.40
14873;DHT22;7528;48.576;19.122;2023-04-06T12:02:46;12.50;32.00
14873;DHT22;7528;48.576;19.122;2023-04-06T12:07:50;12.60;32.90
14873;DHT22;7528;48.576;19.122;2023-04-06T12:12:52;12.60;32.10
14873;DHT22;7528;48.576;19.122;2023-04-06T12:17:55;12.30;33.40
14873;DHT22;7528;48.576;19.122;2023-04-06T12:22:59;12.10;35.40
14873;DHT22;7528;48.576;19.122;2023-04-06T12:28:01;11.80;36.70
14873;DHT22;7528;48.576;19.122;2023-04-06T12:33:04;11.70;38.20
14873;DHT22;7528;48.576;19.122;2023-04-06T12:38:07;11.40;41.00
14873;DHT22;7528;48.576;19.122;2023-04-06T12:43:10;11.20;43.10
14873;DHT22;7528;48.576;19.122;2023-04-06T12:48:14;10.70;45.70
14873;DHT22;7528;48.576;19.122;2023-04-06T12:53:18;10.30;48.30
14873;DHT22;7528;48.576;19.122;2023-04-06T12:58:20;10.10;50.30
14873;DHT22;7528;48.576;19.122;2023-04-06T13:03:23;10.00;51.90
14873;DHT22;7528;48.576;19.122;2023-04-06T13:08:27;9.90;53.30
14873;DHT22;7528;48.576;19.122;2023-04-06T13:13:30;10.00;54.60
14873;DHT22;7528;48.576;19.122;2023-04-06T13:18:33;10.10;54.90
14873;DHT22;7528;48.576;19.122;2023-04-06T13:23:39;10.10;54.70
14873;DHT22;7528;48.576;19.122;2023-04-06T13:28:42;10.30;54.00
14873;DHT22;7528;48.576;19.122;2023-04-06T13:33:45;10.40;53.90
14873;DHT22;7528;48.576;19.122;2023-04-06T13:38:48;10.30;54.10
14873;DHT22;7528;48.576;19.122;2023-04-06T13:43:51;10.40;53.70
14873;DHT22;7528;48.576;19.122;2023-04-06T13:48:54;10.40;54.10
14873;DHT22;7528;48.576;19.122;2023-04-06T13:53:57;10.20;53.60
14873;DHT22;7528;48.576;19.122;2023-04-06T13:59:00;10.00;54.00
14873;DHT22;7528;48.576;19.122;2023-04-06T14:04:02;9.90;53.90
14873;DHT22;7528;48.576;19.122;2023-04-06T14:09:06;9.90;54.40
14873;DHT22;7528;48.576;19.122;2023-04-06T14:14:08;9.90;53.10
14873;DHT22;7528;48.576;19.122;2023-04-06T14:19:12;9.70;53.10
14873;DHT22;7528;48.576;19.122;2023-04-06T14:24:17;9.70;53.70
14873;DHT22;7528;48.576;19.122;2023-04-06T14:29:20;9.70;51.90
14873;DHT22;7528;48.576;19.122;2023-04-06T14:34:22;9.70;52.10
14873;DHT22;7528;48.576;19.122;2023-04-06T14:39:26;9.90;51.50
14873;DHT22;7528;48.576;19.122;2023-04-06T14:44:28;9.80;50.00
14873;DHT22;7528;48.576;19.122;2023-04-06T14:49:31;9.90;50.30
14873;DHT22;7528;48.576;19.122;2023-04-06T14:54:34;9.70;50.70
14873;DHT22;7528;48.576;19.122;2023-04-06T14:59:37;9.60;51.30
14873;DHT22;7528;48.576;19.122;2023-04-06T15:04:39;9.50;52.40
14873;DHT22;7528;48.576;19.122;2023-04-06T15:09:43;9.40;53.10
14873;DHT22;7528;48.576;19.122;2023-04-06T15:14:46;9.20;54.00
14873;DHT22;7528;48.576;19.122;2023-04-06T15:19:48;9.00;55.90
14873;DHT22;7528;48.576;19.122;2023-04-06T15:24:52;8.90;56.40
14873;DHT22;7528;48.576;19.122;2023-04-06T15:29:54;8.90;56.70
14873;DHT22;7528;48.576;19.122;2023-04-06T15:34:59;8.80;57.90
14873;DHT22;7528;48.576;19.122;2023-04-06T15:40:03;8.90;58.20
14873;DHT22;7528;48.576;19.122;2023-04-06T15:45:07;8.90;57.30
14873;DHT22;7528;48.576;19.122;2023-04-06T15:50:10;8.70;56.70
14873;DHT22;7528;48.576;19.122;2023-04-06T15:55:15;8.70;57.20
14873;DHT22;7528;48.576;19.122;2023-04-06T16:00:18;8.60;56.70
14873;DHT22;7528;48.576;19.122;2023-04-06T16:05:22;8.50;56.50
14873;DHT22;7528;48.576;19.122;2023-04-06T16:10:26;8.40;56.10
14873;DHT22;7528;48.576;19.122;2023-04-06T16:15:28;8.40;56.20
14873;DHT22;7528;48.576;19.122;2023-04-06T16:20:31;8.40;55.00
14873;DHT22;7528;48.576;19.122;2023-04-06T16:25:35;8.40;54.70
14873;DHT22;7528;48.576;19.122;2023-04-06T16:30:37;8.40;54.60
14873;DHT22;7528;48.576;19.122;2023-04-06T16:35:43;8.40;54.10
14873;DHT22;7528;48.576;19.122;2023-04-06T16:40:47;8.40;55.30
14873;DHT22;7528;48.576;19.122;2023-04-06T16:45:49;8.40;54.00
14873;DHT22;7528;48.576;19.122;2023-04-06T16:50:53;8.40;54.40
14873;DHT22;7528;48.576;19.122;2023-04-06T16:55:57;8.40;54.50
14873;DHT22;7528;48.576;19.122;2023-04-06T17:01:00;8.40;54.00
14873;DHT22;7528;48.576;19.122;2023-04-06T17:06:02;8.30;54.10
14873;DHT22;7528;48.576;19.122;2023-04-06T17:11:06;8.30;54.40
14873;DHT22;7528;48.576;19.122;2023-04-06T17:16:09;8.40;54.70
14873;DHT22;7528;48.576;19.122;2023-04-06T17:21:12;8.50;53.20
14873;DHT22;7528;48.576;19.122;2023-04-06T17:26:18;8.40;53.80
14873;DHT22;7528;48.576;19.122;2023-04-06T17:31:21;8.40;53.60
14873;DHT22;7528;48.576;19.122;2023-04-06T17:36:23;8.40;53.10
14873;DHT22;7528;48.576;19.122;2023-04-06T17:41:30;8.40;53.50
14873;DHT22;7528;48.576;19.122;2023-04-06T17:46:34;8.40;53.80
14873;DHT22;7528;48.576;19.122;2023-04-06T17:51:36;8.40;53.40
14873;DHT22;7528;48.576;19.122;2023-04-06T17:56:40;8.40;53.40
14873;DHT22;7528;48.576;19.122;2023-04-06T18:01:43;8.50;55.00
14873;DHT22;7528;48.576;19.122;2023-04-06T18:06:48;8.50;54.90
14873;DHT22;7528;48.576;19.122;2023-04-06T18:11:51;8.50;54.90
14873;DHT22;7528;48.576;19.122;2023-04-06T18:16:54;8.30;54.70
14873;DHT22;7528;48.576;19.122;2023-04-06T18:21:57;8.00;56.80
14873;DHT22;7528;48.576;19.122;2023-04-06T18:27:01;7.90;58.40
14873;DHT22;7528;48.576;19.122;2023-04-06T18:32:04;7.90;59.30
14873;DHT22;7528;48.576;19.122;2023-04-06T18:37:07;7.90;60.20
14873;DHT22;7528;48.576;19.122;2023-04-06T18:42:10;7.80;61.50
14873;DHT22;7528;48.576;19.122;2023-04-06T18:47:13;7.70;62.70
14873;DHT22;7528;48.576;19.122;2023-04-06T18:52:15;7.50;63.60
14873;DHT22;7528;48.576;19.122;2023-04-06T18:57:19;7.30;64.80
14873;DHT22;7528;48.576;19.122;2023-04-06T19:02:22;7.30;65.60
14873;DHT22;7528;48.576;19.122;2023-04-06T19:07:24;7.10;65.00
14873;DHT22;7528;48.576;19.122;2023-04-06T19:12:28;7.10;64.70
14873;DHT22;7528;48.576;19.122;2023-04-06T19:17:30;7.10;63.40
14873;DHT22;7528;48.576;19.122;2023-04-06T19:22:34;7.00;63.40
14873;DHT22;7528;48.576;19.122;2023-04-06T19:27:38;7.00;63.90
14873;DHT22;7528;48.576;19.122;2023-04-06T19:32:40;7.10;65.20
14873;DHT22;7528;48.576;19.122;2023-04-06T19:37:43;7.10;64.20
14873;DHT22;7528;48.576;19.122;2023-04-06T19:42:46;7.10;64.60
14873;DHT22;7528;48.576;19.122;2023-04-06T19:47:49;7.20;64.80
14873;DHT22;7528;48.576;19.122;2023-04-06T19:52:51;7.20;64.80
14873;DHT22;7528;48.576;19.122;2023-04-06T19:57:57;7.20;64.30
14873;DHT22;7528;48.576;19.122;2023-04-06T20:02:59;7.20;63.90
14873;DHT22;7528;48.576;19.122;2023-04-06T20:08:02;7.20;63.70
14873;DHT22;7528;48.576;19.122;2023-04-06T20:13:05;7.20;64.10
14873;DHT22;7528;48.576;19.122;2023-04-06T20:18:08;7.30;64.10
14873;DHT22;7528;48.576;19.122;2023-04-06T20:23:10;7.30;63.60
14873;DHT22;7528;48.576;19.122;2023-04-06T20:28:14;7.20;63.40
14873;DHT22;7528;48.576;19.122;2023-04-06T20:33:17;7.20;62.40
14873;DHT22;7528;48.576;19.122;2023-04-06T20:38:19;7.30;62.00
14873;DHT22;7528;48.576;19.122;2023-04-06T20:43:23;7.20;61.80
14873;DHT22;7528;48.576;19.122;2023-04-06T20:48:28;7.20;62.70
14873;DHT22;7528;48.576;19.122;2023-04-06T20:53:31;7.30;63.70
14873;DHT22;7528;48.576;19.122;2023-04-06T20:58:35;7.30;63.50
14873;DHT22;7528;48.576;19.122;2023-04-06T21:03:37;7.30;63.20
14873;DHT22;7528;48.576;19.122;2023-04-06T21:08:39;7.20;63.70
14873;DHT22;7528;48.576;19.122;2023-04-06T21:13:43;7.20;63.50
14873;DHT22;7528;48.576;19.122;2023-04-06T21:18:46;7.20;63.10
14873;DHT22;7528;48.576;19.122;2023-04-06T21:23:50;7.10;63.20
14873;DHT22;7528;48.576;19.122;2023-04-06T21:28:54;7.10;62.80
14873;DHT22;7528;48.576;19.122;2023-04-06T21:33:56;7.00;63.20
14873;DHT22;7528;48.576;19.122;2023-04-06T21:38:59;7.00;62.30
14873;DHT22;7528;48.576;19.122;2023-04-06T21:44:03;7.10;63.30
14873;DHT22;7528;48.576;19.122;2023-04-06T21:49:06;7.10;63.10
14873;DHT22;7528;48.576;19.122;2023-04-06T21:54:08;7.10;62.80
14873;DHT22;7528;48.576;19.122;2023-04-06T21:59:12;7.20;63.10
14873;DHT22;7528;48.576;19.122;2023-04-06T22:04:15;7.20;61.70
14873;DHT22;7528;48.576;19.122;2023-04-06T22:09:18;7.10;62.10
14873;DHT22;7528;48.576;19.122;2023-04-06T22:14:21;7.10;62.50
14873;DHT22;7528;48.576;19.122;2023-04-06T22:19:24;7.10;63.30
14873;DHT22;7528;48.576;19.122;2023-04-06T22:24:27;7.10;63.30
14873;DHT22;7528;48.576;19.122;2023-04-06T22:29:30;7.00;63.50
14873;DHT22;7528;48.576;19.122;2023-04-06T22:34:33;7.00;63.30
14873;DHT22;7528;48.576;19.122;2023-04-06T22:39:35;7.00;63.50
14873;DHT22;7528;48.576;19.122;2023-04-06T22:44:39;7.00;62.60
14873;DHT22;7528;48.576;19.122;2023-04-06T22:49:41;7.00;63.60
14873;DHT22;7528;48.576;19.122;2023-04-06T22:54:44;6.90;62.80
14873;DHT22;7528;48.576;19.122;2023-04-06T22:59:47;7.00;62.90
14873;DHT22;7528;48.576;19.122;2023-04-06T23:04:50;6.90;62.30
14873;DHT22;7528;48.576;19.122;2023-04-06T23:09:52;6.90;62.30
14873;DHT22;7528;48.576;19.122;2023-04-06T23:14:56;7.00;62.60
14873;DHT22;7528;48.576;19.122;2023-04-06T23:20:01;7.00;62.30
14873;DHT22;7528;48.576;19.122;2023-04-06T23:25:04;7.00;62.50
14873;DHT22;7528;48.576;19.122;2023-04-06T23:30:09;7.00;62.40
14873;DHT22;7528;48.576;19.122;2023-04-06T23:35:12;7.00;62.40
14873;DHT22;7528;48.576;19.122;2023-04-06T23:40:14;7.00;62.00
14873;DHT22;7528;48.576;19.122;2023-04-06T23:45:19;6.90;62.10
14873;DHT22;7528;48.576;19.122;2023-04-06T23:50:21;6.90;62.20
14873;DHT22;7528;48.576;19.122;2023-04-06T23:55:24;6.90;62.00
